Time;durP1;ratioP1;P1;durP2;ratioP2;P2;SDS_P1;SDS_P2;PMS_P1;PMS_P2;Temp;Humidity;BMP_temperature;BMP_pressure;BME280_temperature;BME280_humidity;BME280_pressure;Samples;Min_cycle;Max_cycle;Signal;HPM_P1;HPM_P2
2021/04/29 00:01:29;;;;;;;12.80;11.70;;;12.70;99.90;;;;;;4938520;29;20471;-87
2021/04/29 00:03:55;;;;;;;11.83;10.73;;;12.70;99.90;;;;;;4937863;29;20948;-86
2021/04/29 00:06:22;;;;;;;12.37;11.07;;;12.70;99.90;;;;;;4937928;29;20498;-85
2021/04/29 00:08:48;;;;;;;13.10;11.23;;;12.60;99.90;;;;;;4937735;29;20474;-86
2021/04/29 00:11:14;;;;;;;12.40;10.63;;;12.60;99.90;;;;;;4938883;29;20485;-87
2021/04/29 00:13:41;;;;;;;11.90;10.50;;;12.60;99.90;;;;;;4940350;29;20464;-87
2021/04/29 00:16:08;;;;;;;10.93;9.90;;;12.60;99.90;;;;;;4946043;29;20450;-87
2021/04/29 00:18:34;;;;;;;16.37;13.20;;;12.50;99.90;;;;;;4944743;29;20496;-86
2021/04/29 00:21:01;;;;;;;12.73;11.03;;;12.40;99.90;;;;;;4941910;29;20461;-88
2021/04/29 00:23:29;;;;;;;12.37;10.90;;;12.40;99.90;;;;;;4942708;29;20457;-87
2021/04/29 00:25:55;;;;;;;13.53;12.13;;;12.40;99.90;;;;;;4941770;29;20472;-87
2021/04/29 00:28:22;;;;;;;16.23;11.60;;;12.40;99.90;;;;;;4942607;29;20621;-86
2021/04/29 00:30:50;;;;;;;12.60;11.30;;;12.30;99.90;;;;;;4947942;29;20463;-86
2021/04/29 00:33:17;;;;;;;13.30;11.90;;;12.30;99.90;;;;;;4955953;29;20453;-86
2021/04/29 00:35:43;;;;;;;11.27;10.27;;;12.40;99.90;;;;;;4950062;28;20465;-86
2021/04/29 00:38:09;;;;;;;12.13;11.00;;;12.30;99.90;;;;;;4945931;29;20987;-87
2021/04/29 00:40:37;;;;;;;12.23;10.97;;;12.30;99.90;;;;;;4944857;29;21207;-86
2021/04/29 00:43:03;;;;;;;13.03;11.83;;;12.30;99.90;;;;;;4940292;29;20464;-86
2021/04/29 00:45:29;;;;;;;12.27;11.00;;;12.30;99.90;;;;;;4939934;29;20472;-86
2021/04/29 00:47:56;;;;;;;13.53;12.13;;;12.30;99.90;;;;;;4940446;29;20497;-86
2021/04/29 00:50:25;;;;;;;11.60;10.60;;;12.30;99.90;;;;;;4942295;29;20480;-86
2021/04/29 00:52:51;;;;;;;12.63;11.37;;;12.30;99.90;;;;;;4942192;29;20461;-86
2021/04/29 00:55:18;;;;;;;12.57;11.27;;;12.30;99.90;;;;;;4942254;29;20457;-86
2021/04/29 00:57:44;;;;;;;13.23;11.87;;;12.40;99.90;;;;;;4941604;29;20480;-85
2021/04/29 01:00:12;;;;;;;12.20;11.10;;;12.40;99.90;;;;;;4939408;29;20814;-86
2021/04/29 01:02:45;;;;;;;11.97;10.87;;;12.30;99.90;;;;;;4936409;29;20963;-86
2021/04/29 01:05:18;;;;;;;10.50;9.50;;;12.40;99.90;;;;;;4942461;29;20494;-86
2021/04/29 01:07:58;;;;;;;12.43;11.33;;;12.40;99.90;;;;;;4942103;29;20504;-86
2021/04/29 01:10:36;;;;;;;13.03;11.73;;;12.30;99.90;;;;;;4942550;29;20438;-87
2021/04/29 01:13:11;;;;;;;12.97;11.67;;;12.30;99.90;;;;;;4941923;29;20441;-86
2021/04/29 01:15:40;;;;;;;11.83;10.63;;;12.30;99.90;;;;;;4925984;29;20948;-86
2021/04/29 01:18:09;;;;;;;11.30;10.30;;;12.30;99.90;;;;;;4940923;29;20499;-86
2021/04/29 01:20:46;;;;;;;11.00;9.93;;;12.30;99.90;;;;;;4937229;29;20971;-86
2021/04/29 01:23:23;;;;;;;11.53;10.33;;;12.30;99.90;;;;;;4937120;29;20566;-86
2021/04/29 01:25:55;;;;;;;9.77;8.90;;;12.40;99.90;;;;;;4936588;29;21038;-87
2021/04/29 01:28:23;;;;;;;8.67;7.97;;;12.40;99.90;;;;;;4936172;29;20999;-87
2021/04/29 01:30:49;;;;;;;9.27;8.37;;;12.30;99.90;;;;;;4937302;29;20449;-87
2021/04/29 01:33:16;;;;;;;5.73;5.20;;;12.30;99.90;;;;;;4936735;29;20814;-86
2021/04/29 01:35:42;;;;;;;6.20;5.60;;;12.30;99.90;;;;;;4936524;29;20997;-87
2021/04/29 01:38:09;;;;;;;4.20;3.80;;;12.30;99.90;;;;;;4935905;29;20492;-87
2021/04/29 01:40:36;;;;;;;4.87;4.47;;;12.20;99.90;;;;;;4936386;29;20471;-87
2021/04/29 01:43:03;;;;;;;4.80;4.30;;;12.10;99.90;;;;;;4936458;29;20468;-88
2021/04/29 01:45:30;;;;;;;4.80;4.40;;;12.10;99.90;;;;;;4935844;29;20468;-87
2021/04/29 01:47:56;;;;;;;4.43;4.03;;;12.10;99.90;;;;;;4935588;29;20501;-88
2021/04/29 01:50:23;;;;;;;4.37;4.07;;;12.20;99.90;;;;;;4936079;29;20462;-87
2021/04/29 01:52:49;;;;;;;4.03;3.63;;;12.20;99.90;;;;;;4935457;29;20500;-87
2021/04/29 01:55:16;;;;;;;3.47;3.27;;;12.20;99.90;;;;;;4935791;29;20852;-88
2021/04/29 01:57:42;;;;;;;3.90;3.30;;;12.10;99.90;;;;;;4936515;29;21012;-85
2021/04/29 02:00:10;;;;;;;3.60;3.30;;;12.20;99.90;;;;;;4936118;29;20870;-86
2021/04/29 02:02:38;;;;;;;3.40;3.10;;;12.10;99.90;;;;;;4935455;29;20457;-86
2021/04/29 02:05:04;;;;;;;3.50;3.20;;;12.10;99.90;;;;;;4935115;29;20464;-86
2021/04/29 02:07:31;;;;;;;4.00;3.70;;;12.20;99.90;;;;;;4934943;29;21027;-86
2021/04/29 02:09:57;;;;;;;3.70;3.40;;;12.10;99.90;;;;;;4934595;29;20504;-86
2021/04/29 02:12:25;;;;;;;4.30;3.90;;;12.20;99.90;;;;;;4935613;29;20460;-86
2021/04/29 02:14:53;;;;;;;5.00;4.00;;;12.30;99.90;;;;;;4938669;29;20453;-86
2021/04/29 02:17:28;;;;;;;4.00;3.50;;;12.20;99.90;;;;;;4939478;29;20975;-86
2021/04/29 02:19:57;;;;;;;3.50;3.20;;;12.10;99.90;;;;;;4941992;29;20457;-87
2021/04/29 02:22:25;;;;;;;3.67;3.37;;;12.20;99.90;;;;;;4940493;29;20967;-86
2021/04/29 02:24:53;;;;;;;4.57;4.17;;;12.20;99.90;;;;;;4940561;29;20465;-86
2021/04/29 02:27:24;;;;;;;3.63;3.33;;;12.20;99.90;;;;;;4938993;29;20500;-86
2021/04/29 02:29:50;;;;;;;3.90;3.60;;;12.10;99.90;;;;;;4938359;29;20457;-86
2021/04/29 02:32:18;;;;;;;3.90;3.57;;;12.20;99.90;;;;;;4938787;29;20951;-86
2021/04/29 02:34:45;;;;;;;3.60;3.30;;;12.10;99.90;;;;;;4939114;29;20487;-86
2021/04/29 02:37:13;;;;;;;2.70;2.50;;;12.00;99.90;;;;;;4938337;29;20485;-86
2021/04/29 02:39:40;;;;;;;2.70;2.50;;;12.10;99.90;;;;;;4938681;29;20445;-86
2021/04/29 02:42:07;;;;;;;1.80;1.70;;;12.10;99.90;;;;;;4938704;29;20518;-86
2021/04/29 02:44:37;;;;;;;1.90;1.80;;;12.00;99.90;;;;;;4939108;29;20460;-86
2021/04/29 02:47:04;;;;;;;2.73;2.43;;;12.00;99.90;;;;;;4937967;29;20505;-86
2021/04/29 02:49:32;;;;;;;2.87;2.67;;;12.10;99.90;;;;;;4957839;29;20434;-86
2021/04/29 02:51:59;;;;;;;2.07;1.97;;;12.10;99.90;;;;;;4945531;29;20445;-86
2021/04/29 02:54:26;;;;;;;2.10;1.90;;;12.10;99.90;;;;;;4938963;29;20524;-86
2021/04/29 02:56:52;;;;;;;2.00;1.90;;;12.10;99.90;;;;;;4938216;29;20461;-86
2021/04/29 02:59:19;;;;;;;1.70;1.60;;;12.10;99.90;;;;;;4937075;29;20465;-86
2021/04/29 03:01:45;;;;;;;2.00;1.90;;;12.10;99.90;;;;;;4937403;29;20462;-86
2021/04/29 03:04:11;;;;;;;2.63;2.43;;;12.00;99.90;;;;;;4939736;29;20499;-86
2021/04/29 03:06:38;;;;;;;2.50;1.87;;;11.70;99.90;;;;;;4944769;29;20907;-86
2021/04/29 03:09:05;;;;;;;1.70;1.60;;;11.60;99.90;;;;;;4944329;29;20504;-86
2021/04/29 03:11:33;;;;;;;3.00;1.80;;;11.40;99.90;;;;;;4945120;29;20488;-86
2021/04/29 03:13:59;;;;;;;2.20;2.00;;;11.30;99.90;;;;;;4945517;29;20971;-86
2021/04/29 03:16:26;;;;;;;2.87;2.67;;;11.30;99.90;;;;;;4944952;29;20449;-85
2021/04/29 03:18:52;;;;;;;1.57;1.47;;;11.50;99.90;;;;;;4945262;29;20484;-85
2021/04/29 03:21:18;;;;;;;1.57;1.47;;;11.40;99.90;;;;;;4944361;29;21090;-85
2021/04/29 03:23:44;;;;;;;1.70;1.60;;;11.30;99.90;;;;;;4942197;29;20465;-85
2021/04/29 03:26:11;;;;;;;1.33;1.23;;;11.30;99.90;;;;;;4942680;29;20496;-85
2021/04/29 03:28:38;;;;;;;1.33;1.20;;;11.20;99.90;;;;;;4943358;29;20481;-85
2021/04/29 03:31:04;;;;;;;1.70;1.67;;;11.10;99.90;;;;;;4944206;29;20453;-85
2021/04/29 03:33:31;;;;;;;2.03;1.33;;;11.00;99.90;;;;;;4942759;29;20488;-85
2021/04/29 03:35:57;;;;;;;1.20;1.10;;;11.00;99.90;;;;;;4942113;29;20468;-85
2021/04/29 03:38:23;;;;;;;1.60;1.00;;;11.00;99.90;;;;;;4941843;29;20529;-85
2021/04/29 03:40:50;;;;;;;0.70;0.70;;;10.90;99.90;;;;;;4940875;29;20468;-85
2021/04/29 03:43:16;;;;;;;1.10;1.00;;;10.90;99.90;;;;;;4940550;29;20465;-85
2021/04/29 03:45:43;;;;;;;0.83;0.83;;;10.80;99.90;;;;;;4940535;29;20672;-86
2021/04/29 03:48:10;;;;;;;2.83;1.27;;;10.80;99.90;;;;;;4939804;29;20523;-85
2021/04/29 03:50:36;;;;;;;1.13;1.07;;;10.80;99.90;;;;;;4939744;29;20985;-85
2021/04/29 03:53:03;;;;;;;0.83;0.83;;;10.80;99.90;;;;;;4939395;29;20457;-85
2021/04/29 03:55:29;;;;;;;1.13;0.83;;;10.80;99.90;;;;;;4938785;29;20466;-86
2021/04/29 03:57:55;;;;;;;1.17;1.03;;;10.80;99.90;;;;;;4939171;29;20472;-85
2021/04/29 04:00:22;;;;;;;1.40;1.30;;;10.80;99.90;;;;;;4938539;29;20512;-85
2021/04/29 04:02:49;;;;;;;0.90;0.90;;;10.80;99.90;;;;;;4939193;29;20552;-86
2021/04/29 04:05:17;;;;;;;1.60;1.07;;;10.70;99.90;;;;;;4939607;29;20885;-86
2021/04/29 04:07:47;;;;;;;1.00;1.00;;;10.70;99.90;;;;;;4938157;29;20503;-85
2021/04/29 04:10:13;;;;;;;0.80;0.80;;;10.70;99.90;;;;;;4938620;29;20531;-85
2021/04/29 04:12:39;;;;;;;0.80;0.80;;;10.70;99.90;;;;;;4938017;29;20461;-85
2021/04/29 04:15:07;;;;;;;1.33;1.10;;;10.70;99.90;;;;;;4938581;29;20524;-85
2021/04/29 04:17:33;;;;;;;1.13;1.03;;;10.90;99.90;;;;;;4938028;29;20851;-86
2021/04/29 04:20:00;;;;;;;1.27;1.10;;;11.00;99.90;;;;;;4937837;29;20457;-85
2021/04/29 04:22:26;;;;;;;1.20;1.20;;;11.00;99.90;;;;;;4937353;29;20461;-85
2021/04/29 04:24:53;;;;;;;1.23;1.23;;;11.10;99.90;;;;;;4938742;29;20459;-85
2021/04/29 04:27:19;;;;;;;1.50;1.40;;;11.00;99.90;;;;;;4938620;29;20504;-85
2021/04/29 04:29:45;;;;;;;1.47;1.37;;;11.10;99.90;;;;;;4938998;29;20460;-85
2021/04/29 04:32:11;;;;;;;1.50;1.33;;;11.10;99.90;;;;;;4939468;29;20494;-85
2021/04/29 04:34:37;;;;;;;1.67;1.57;;;11.00;99.90;;;;;;4939675;29;20457;-85
2021/04/29 04:37:04;;;;;;;1.83;1.73;;;11.00;99.90;;;;;;4939462;29;20499;-85
2021/04/29 04:39:33;;;;;;;1.23;1.13;;;11.00;99.90;;;;;;4939615;29;20452;-85
2021/04/29 04:41:59;;;;;;;1.60;1.50;;;11.00;99.90;;;;;;4939307;29;20827;-85
2021/04/29 04:44:26;;;;;;;1.97;1.80;;;11.00;99.90;;;;;;4939271;29;20837;-86
2021/04/29 04:46:52;;;;;;;2.03;1.80;;;11.10;99.90;;;;;;4939050;29;21031;-85
2021/04/29 04:49:18;;;;;;;1.80;1.70;;;11.10;99.90;;;;;;4938621;29;20465;-86
2021/04/29 04:51:46;;;;;;;3.40;2.93;;;11.10;99.90;;;;;;4938714;29;20469;-86
2021/04/29 04:54:13;;;;;;;2.07;1.97;;;11.20;99.90;;;;;;4938209;29;20556;-86
2021/04/29 04:56:40;;;;;;;1.53;1.43;;;11.30;99.90;;;;;;4938139;29;20509;-85
2021/04/29 04:59:06;;;;;;;2.00;1.90;;;11.30;99.90;;;;;;4942917;29;20477;-85
2021/04/29 05:01:32;;;;;;;2.03;1.93;;;11.40;99.90;;;;;;4940562;29;20460;-85
2021/04/29 05:03:59;;;;;;;2.30;2.03;;;11.40;99.90;;;;;;4939302;29;20955;-85
2021/04/29 05:06:25;;;;;;;4.67;2.47;;;11.40;99.90;;;;;;4939124;29;20485;-85
2021/04/29 05:08:51;;;;;;;2.30;1.77;;;11.40;99.90;;;;;;4941329;29;20484;-86
2021/04/29 05:11:18;;;;;;;3.03;2.33;;;11.40;99.90;;;;;;4940951;29;20445;-86
2021/04/29 05:13:44;;;;;;;3.23;2.90;;;11.40;99.90;;;;;;4941345;29;20457;-86
2021/04/29 05:16:11;;;;;;;2.90;2.70;;;11.40;99.90;;;;;;4940658;29;20465;-85
2021/04/29 05:18:37;;;;;;;3.13;2.93;;;11.40;99.90;;;;;;4940098;29;20837;-86
2021/04/29 05:21:03;;;;;;;3.00;2.80;;;11.40;99.90;;;;;;4940777;29;20466;-85
2021/04/29 05:23:30;;;;;;;3.13;2.43;;;11.40;99.90;;;;;;4940568;29;20461;-85
2021/04/29 05:25:56;;;;;;;2.43;2.10;;;11.40;99.90;;;;;;4941147;29;20468;-85
2021/04/29 05:28:23;;;;;;;2.77;2.57;;;11.40;99.90;;;;;;4941180;29;20524;-85
2021/04/29 05:30:49;;;;;;;3.50;3.20;;;11.50;99.90;;;;;;4941102;29;20454;-85
2021/04/29 05:33:16;;;;;;;3.13;2.77;;;11.50;99.90;;;;;;4940169;29;20463;-85
2021/04/29 05:35:42;;;;;;;4.03;2.67;;;11.50;99.90;;;;;;4940824;29;20457;-85
2021/04/29 05:38:08;;;;;;;3.10;2.80;;;11.50;99.90;;;;;;4939965;29;20477;-85
2021/04/29 05:40:35;;;;;;;3.90;3.30;;;11.60;99.90;;;;;;4940760;29;20461;-85
2021/04/29 05:43:01;;;;;;;3.03;2.83;;;11.50;99.90;;;;;;4940848;29;20453;-85
2021/04/29 05:45:28;;;;;;;2.57;2.37;;;11.50;99.90;;;;;;4940839;29;20445;-86
2021/04/29 05:47:54;;;;;;;3.40;3.10;;;11.60;99.90;;;;;;4943227;29;20501;-86
2021/04/29 05:50:20;;;;;;;3.30;3.00;;;11.40;99.90;;;;;;4945379;29;20474;-85
2021/04/29 05:52:46;;;;;;;5.37;3.50;;;11.40;99.90;;;;;;4944238;29;20811;-85
2021/04/29 05:55:13;;;;;;;4.00;3.60;;;11.40;99.90;;;;;;4944453;29;20456;-85
2021/04/29 05:57:39;;;;;;;3.27;3.17;;;11.40;99.90;;;;;;4944781;29;20499;-85
2021/04/29 06:00:07;;;;;;;3.53;3.23;;;11.40;99.90;;;;;;4943531;29;20464;-85
2021/04/29 06:02:34;;;;;;;3.80;3.50;;;11.30;99.90;;;;;;4944509;29;20460;-85
2021/04/29 06:05:00;;;;;;;3.87;3.57;;;11.30;99.90;;;;;;4944444;29;20454;-85
2021/04/29 06:07:26;;;;;;;4.07;3.67;;;11.50;99.90;;;;;;4944712;29;20493;-85
2021/04/29 06:09:53;;;;;;;7.50;3.53;;;11.50;99.90;;;;;;4944232;29;20452;-86
2021/04/29 06:12:19;;;;;;;3.47;3.27;;;11.50;99.90;;;;;;4943084;29;20465;-85
2021/04/29 06:14:45;;;;;;;4.13;3.30;;;11.50;99.90;;;;;;4942996;29;20457;-86
2021/04/29 06:17:11;;;;;;;3.40;2.97;;;11.50;99.90;;;;;;4942006;29;20483;-85
2021/04/29 06:19:38;;;;;;;3.60;2.83;;;11.50;99.90;;;;;;4942531;29;20485;-85
2021/04/29 06:22:05;;;;;;;5.10;4.57;;;11.50;99.90;;;;;;4942856;29;20477;-86
2021/04/29 06:24:31;;;;;;;3.70;3.30;;;11.60;99.90;;;;;;4944368;29;20475;-86
2021/04/29 06:26:57;;;;;;;5.47;4.20;;;11.60;99.90;;;;;;4945442;29;20495;-85
2021/04/29 06:29:24;;;;;;;5.30;3.57;;;11.50;99.90;;;;;;4944614;29;20959;-85
2021/04/29 06:31:50;;;;;;;3.60;3.23;;;11.60;99.90;;;;;;4943287;29;20460;-83
2021/04/29 06:34:16;;;;;;;5.63;3.97;;;11.60;99.90;;;;;;4931828;29;20482;-84
2021/04/29 06:36:43;;;;;;;4.67;4.27;;;11.70;99.90;;;;;;4931858;29;20446;-85
2021/04/29 06:39:10;;;;;;;4.17;3.77;;;11.60;99.90;;;;;;4931241;29;20816;-85
2021/04/29 06:41:36;;;;;;;5.37;4.07;;;11.70;99.90;;;;;;4930253;29;20446;-84
2021/04/29 06:44:03;;;;;;;4.53;4.23;;;11.70;99.90;;;;;;4937583;29;20455;-85
2021/04/29 06:46:29;;;;;;;5.03;4.63;;;11.80;99.90;;;;;;4929597;29;20450;-85
2021/04/29 06:48:55;;;;;;;4.40;4.00;;;11.80;99.90;;;;;;4938598;29;20473;-85
2021/04/29 06:51:21;;;;;;;4.23;3.87;;;11.80;99.90;;;;;;4930779;29;20485;-86
2021/04/29 06:53:48;;;;;;;4.70;4.30;;;11.90;99.90;;;;;;4929662;29;20945;-84
2021/04/29 06:56:15;;;;;;;5.07;4.57;;;12.00;99.90;;;;;;4931319;29;20446;-84
2021/04/29 06:58:41;;;;;;;5.10;4.70;;;12.10;99.90;;;;;;4929164;29;20492;-85
2021/04/29 07:01:07;;;;;;;6.63;4.60;;;12.20;99.90;;;;;;4936055;29;20462;-85
2021/04/29 07:03:33;;;;;;;4.87;4.43;;;12.40;99.90;;;;;;4944493;29;20461;-85
2021/04/29 07:05:59;;;;;;;5.00;4.57;;;12.60;99.90;;;;;;4948566;29;20542;-84
2021/04/29 07:08:27;;;;;;;4.20;3.90;;;12.70;99.90;;;;;;4945762;29;20497;-84
2021/04/29 07:10:54;;;;;;;4.27;3.87;;;12.80;99.90;;;;;;4943117;29;20489;-83
2021/04/29 07:13:20;;;;;;;5.60;5.10;;;12.90;99.90;;;;;;4942252;29;20464;-83
2021/04/29 07:15:46;;;;;;;7.33;5.20;;;13.00;99.90;;;;;;4943398;29;20468;-83
2021/04/29 07:18:14;;;;;;;6.50;5.43;;;12.90;99.90;;;;;;4942565;29;20468;-83
2021/04/29 07:20:41;;;;;;;3.80;3.53;;;13.00;99.90;;;;;;4942469;29;20457;-83
2021/04/29 07:23:07;;;;;;;5.77;5.13;;;13.10;99.90;;;;;;4942362;29;20456;-84
2021/04/29 07:25:34;;;;;;;4.80;4.30;;;13.10;99.90;;;;;;4941960;29;20461;-84
2021/04/29 07:28:02;;;;;;;6.33;4.60;;;13.00;99.90;;;;;;4942502;29;20501;-84
2021/04/29 07:30:28;;;;;;;5.93;5.40;;;13.10;99.90;;;;;;4942229;29;20573;-84
2021/04/29 07:32:54;;;;;;;8.73;6.00;;;13.10;99.90;;;;;;4941837;29;20458;-84
2021/04/29 07:35:22;;;;;;;5.17;4.73;;;13.10;99.90;;;;;;4942012;29;20461;-84
2021/04/29 07:37:49;;;;;;;7.87;5.90;;;13.10;99.90;;;;;;4941232;29;20486;-84
2021/04/29 07:40:16;;;;;;;7.07;6.07;;;13.10;99.90;;;;;;4942312;29;20461;-84
2021/04/29 07:42:42;;;;;;;7.70;6.70;;;13.00;99.90;;;;;;4942205;29;20457;-85
2021/04/29 07:45:11;;;;;;;7.30;6.60;;;13.00;99.90;;;;;;4942018;29;20509;-84
2021/04/29 07:47:37;;;;;;;7.67;6.97;;;12.90;99.90;;;;;;4941344;29;20504;-84
2021/04/29 07:50:04;;;;;;;8.70;6.77;;;13.00;99.90;;;;;;4941563;29;20517;-84
2021/04/29 07:52:30;;;;;;;7.87;7.07;;;12.90;99.90;;;;;;4941831;29;20485;-84
2021/04/29 07:54:56;;;;;;;9.87;7.53;;;13.10;99.90;;;;;;4942129;29;20453;-84
2021/04/29 07:57:24;;;;;;;7.07;6.47;;;13.20;99.90;;;;;;4942218;29;20470;-84
2021/04/29 07:59:50;;;;;;;9.10;7.40;;;13.40;99.90;;;;;;4942318;29;20488;-84
2021/04/29 08:02:17;;;;;;;8.67;7.80;;;13.50;99.90;;;;;;4941213;29;20445;-84
2021/04/29 08:04:43;;;;;;;8.53;7.40;;;13.50;99.90;;;;;;4942328;29;20481;-84
2021/04/29 08:07:10;;;;;;;6.60;5.97;;;13.70;99.90;;;;;;4942200;29;20498;-84
2021/04/29 08:09:36;;;;;;;7.37;6.67;;;13.70;99.90;;;;;;4941733;29;20875;-83
2021/04/29 08:12:02;;;;;;;11.07;7.70;;;13.80;99.90;;;;;;4941352;29;20461;-84
2021/04/29 08:14:29;;;;;;;7.57;6.87;;;13.90;99.90;;;;;;4942364;29;20987;-84
2021/04/29 08:16:55;;;;;;;7.00;6.30;;;14.00;99.90;;;;;;4941929;29;20468;-85
2021/04/29 08:19:22;;;;;;;8.90;7.23;;;14.10;99.90;;;;;;4942208;29;20458;-84
2021/04/29 08:21:48;;;;;;;7.70;5.67;;;14.10;99.90;;;;;;4940892;29;20456;-84
2021/04/29 08:24:15;;;;;;;9.30;8.40;;;14.10;99.90;;;;;;4941312;29;20457;-84
2021/04/29 08:26:41;;;;;;;9.77;8.60;;;14.10;99.90;;;;;;4941295;29;20455;-85
2021/04/29 08:29:07;;;;;;;7.80;7.10;;;14.20;99.90;;;;;;4941792;29;21016;-84
2021/04/29 08:31:33;;;;;;;9.57;8.70;;;14.30;99.90;;;;;;4941543;29;20448;-84
2021/04/29 08:34:00;;;;;;;8.70;7.90;;;14.60;99.90;;;;;;4941700;29;20457;-84
2021/04/29 08:36:30;;;;;;;10.50;7.90;;;14.90;99.30;;;;;;4941975;29;20477;-84
2021/04/29 08:38:56;;;;;;;8.10;7.27;;;15.10;99.60;;;;;;4941285;29;20484;-84
2021/04/29 08:41:22;;;;;;;9.23;7.90;;;15.40;99.40;;;;;;4941565;29;20454;-85
2021/04/29 08:43:49;;;;;;;13.13;8.53;;;15.50;99.00;;;;;;4941303;29;20456;-84
2021/04/29 08:46:15;;;;;;;8.67;7.87;;;15.70;98.00;;;;;;4941925;29;20455;-85
2021/04/29 08:48:42;;;;;;;8.33;7.70;;;15.70;98.20;;;;;;4941864;29;20495;-85
2021/04/29 08:51:09;;;;;;;8.90;8.20;;;15.80;98.20;;;;;;4941585;29;20518;-85
2021/04/29 08:53:37;;;;;;;11.80;9.33;;;15.90;98.30;;;;;;4941694;29;20471;-84
2021/04/29 08:56:04;;;;;;;10.60;9.60;;;16.00;96.00;;;;;;4942487;29;20494;-84
2021/04/29 08:58:30;;;;;;;7.80;7.13;;;16.00;95.80;;;;;;4941307;29;20475;-85
2021/04/29 09:01:00;;;;;;;7.70;7.10;;;16.10;95.60;;;;;;4942554;29;20532;-85
2021/04/29 09:03:30;;;;;;;8.33;7.33;;;16.10;96.50;;;;;;4942121;29;20483;-85
2021/04/29 09:05:58;;;;;;;12.63;8.93;;;16.20;96.20;;;;;;4942122;29;20461;-85
2021/04/29 09:08:28;;;;;;;11.10;8.40;;;16.30;95.00;;;;;;4942368;29;20539;-85
2021/04/29 09:11:06;;;;;;;7.80;7.10;;;16.40;94.30;;;;;;4942581;29;20448;-85
2021/04/29 09:13:33;;;;;;;9.63;8.23;;;16.50;94.90;;;;;;4944335;29;20444;-84
2021/04/29 09:16:06;;;;;;;9.30;8.30;;;16.50;95.10;;;;;;4954960;29;20445;-85
2021/04/29 09:18:33;;;;;;;9.23;8.53;;;16.50;95.20;;;;;;4943716;29;20475;-85
2021/04/29 09:21:03;;;;;;;8.27;7.47;;;16.50;94.40;;;;;;4942686;29;20454;-85
2021/04/29 09:23:30;;;;;;;7.83;6.90;;;16.40;94.40;;;;;;4945445;29;20499;-84
2021/04/29 09:25:59;;;;;;;7.63;6.87;;;16.30;94.50;;;;;;4945440;29;20450;-85
2021/04/29 09:28:41;;;;;;;9.57;8.87;;;16.40;94.40;;;;;;4944671;29;20504;-85
2021/04/29 09:31:11;;;;;;;7.73;7.03;;;16.50;93.70;;;;;;4945423;29;20455;-85
2021/04/29 09:33:39;;;;;;;8.37;7.67;;;16.40;94.10;;;;;;4944796;29;20462;-85
2021/04/29 09:36:07;;;;;;;8.07;7.30;;;16.40;94.00;;;;;;4945238;29;20942;-83
2021/04/29 09:38:36;;;;;;;7.47;6.77;;;16.40;94.30;;;;;;4948461;29;20483;-81
2021/04/29 09:41:05;;;;;;;7.10;6.47;;;16.30;94.40;;;;;;4956491;29;20458;-84
2021/04/29 09:43:31;;;;;;;8.00;7.43;;;15.10;94.80;;;;;;4951347;29;20549;-85
2021/04/29 09:45:59;;;;;;;7.30;5.67;;;14.20;96.00;;;;;;4947158;29;20445;-85
2021/04/29 09:48:37;;;;;;;8.13;7.17;;;13.50;97.40;;;;;;4948009;29;20493;-84
2021/04/29 09:51:05;;;;;;;9.27;8.37;;;12.90;99.90;;;;;;4945351;29;20464;-84
2021/04/29 09:53:42;;;;;;;8.30;7.60;;;12.40;99.90;;;;;;4944174;29;20462;-84
2021/04/29 09:56:11;;;;;;;8.67;7.63;;;12.20;99.90;;;;;;4944240;29;20987;-84
2021/04/29 09:58:41;;;;;;;12.70;9.73;;;12.30;99.90;;;;;;4944078;29;20477;-84
2021/04/29 10:01:07;;;;;;;10.53;9.53;;;12.20;99.90;;;;;;4944867;29;20468;-85
2021/04/29 10:03:34;;;;;;;10.90;8.73;;;12.30;99.90;;;;;;4944172;29;20829;-84
2021/04/29 10:06:00;;;;;;;10.70;9.70;;;12.50;99.90;;;;;;4944475;29;20486;-84
2021/04/29 10:08:27;;;;;;;10.10;9.23;;;12.80;99.90;;;;;;4945083;29;20629;-84
2021/04/29 10:10:56;;;;;;;11.50;10.30;;;13.00;99.90;;;;;;4945206;29;20454;-85
2021/04/29 10:13:30;;;;;;;10.57;9.37;;;13.20;99.90;;;;;;4943745;29;20533;-85
2021/04/29 10:15:57;;;;;;;7.87;7.17;;;13.60;99.90;;;;;;4945043;29;20480;-85
2021/04/29 10:18:24;;;;;;;8.70;8.00;;;14.10;99.90;;;;;;4944889;29;20479;-85
2021/04/29 10:20:52;;;;;;;8.33;7.50;;;14.60;99.90;;;;;;4945664;29;20825;-85
2021/04/29 10:23:20;;;;;;;7.07;6.47;;;15.10;99.90;;;;;;4945083;29;20447;-85
2021/04/29 10:25:50;;;;;;;8.77;8.10;;;15.40;99.90;;;;;;4946616;29;20449;-85
2021/04/29 10:28:27;;;;;;;9.07;7.60;;;15.50;99.90;;;;;;4947029;29;20487;-85
2021/04/29 10:30:55;;;;;;;6.97;6.47;;;15.50;99.90;;;;;;4946036;29;20463;-85
2021/04/29 10:33:22;;;;;;;9.30;8.40;;;15.70;99.70;;;;;;4945850;29;20458;-86
2021/04/29 10:35:52;;;;;;;7.77;7.13;;;15.90;99.90;;;;;;4946164;29;20463;-85
2021/04/29 10:38:28;;;;;;;8.33;7.33;;;16.00;97.60;;;;;;4946067;29;20489;-85
2021/04/29 10:40:56;;;;;;;7.07;6.43;;;16.20;96.30;;;;;;4947282;29;20459;-85
2021/04/29 10:43:35;;;;;;;8.17;7.43;;;16.10;95.10;;;;;;4945590;29;20455;-85
2021/04/29 10:46:04;;;;;;;8.80;7.60;;;16.00;95.50;;;;;;4946159;29;20451;-85
2021/04/29 10:48:33;;;;;;;7.83;7.07;;;16.10;95.30;;;;;;4945868;29;20526;-85
2021/04/29 10:51:08;;;;;;;10.03;9.10;;;16.20;94.70;;;;;;4946323;29;20467;-85
2021/04/29 10:53:35;;;;;;;9.10;7.03;;;16.30;94.60;;;;;;4945848;29;20465;-85
2021/04/29 10:56:04;;;;;;;7.40;6.80;;;16.40;94.40;;;;;;4945487;29;20456;-85
2021/04/29 10:58:30;;;;;;;7.00;6.40;;;16.50;93.70;;;;;;4946016;29;20476;-85
2021/04/29 11:01:02;;;;;;;7.10;6.40;;;16.60;93.40;;;;;;4944780;29;20823;-84
2021/04/29 11:03:30;;;;;;;8.93;7.83;;;16.80;94.30;;;;;;4944341;29;20481;-85
2021/04/29 11:06:16;;;;;;;8.67;7.80;;;17.10;93.20;;;;;;4945766;29;20449;-85
2021/04/29 11:08:45;;;;;;;7.00;6.40;;;17.40;92.70;;;;;;4944045;29;20556;-85
2021/04/29 11:11:27;;;;;;;5.30;4.07;;;17.80;92.30;;;;;;4947505;29;20461;-85
2021/04/29 11:14:01;;;;;;;6.67;6.07;;;18.10;90.10;;;;;;4944575;29;20540;-84
2021/04/29 11:16:29;;;;;;;7.33;6.57;;;18.20;89.60;;;;;;4945181;29;20460;-84
2021/04/29 11:18:55;;;;;;;7.10;5.90;;;18.30;89.50;;;;;;4945901;29;20484;-85
2021/04/29 11:21:26;;;;;;;7.40;5.20;;;18.40;90.00;;;;;;4949064;29;20457;-86
2021/04/29 11:23:53;;;;;;;5.87;5.30;;;18.60;87.60;;;;;;4956152;29;20525;-86
2021/04/29 11:26:20;;;;;;;5.63;4.97;;;18.70;83.50;;;;;;4948349;29;20454;-85
2021/04/29 11:28:48;;;;;;;4.50;3.73;;;18.70;82.80;;;;;;4946412;29;20868;-86
2021/04/29 11:31:16;;;;;;;4.43;4.03;;;18.50;78.00;;;;;;4947096;29;20462;-85
2021/04/29 11:33:46;;;;;;;4.03;3.37;;;18.40;79.20;;;;;;4947183;29;20464;-86
2021/04/29 11:36:17;;;;;;;3.70;3.40;;;18.70;78.50;;;;;;4947839;29;20445;-86
2021/04/29 11:38:52;;;;;;;4.50;4.10;;;19.10;77.70;;;;;;4947105;29;20477;-86
2021/04/29 11:41:37;;;;;;;4.40;4.10;;;19.30;81.00;;;;;;5038224;23;20425;-87
2021/04/29 11:44:21;;;;;;;;;;;;;;;;;;;;;
2021/04/29 11:46:59;;;;;;;4.53;4.13;;;17.20;82.70;;;;;;4888473;29;20552;-86
2021/04/29 11:49:57;;;;;;;5.07;4.73;;;15.90;85.70;;;;;;4888585;29;20448;-86
2021/04/29 11:52:57;;;;;;;;;;;;;;;;;;;;;
2021/04/29 11:55:26;;;;;;;5.10;4.70;;;14.80;89.80;;;;;;4884360;29;20549;-86
2021/04/29 11:57:53;;;;;;;3.93;3.53;;;14.40;90.30;;;;;;4884312;29;20468;-86
2021/04/29 12:00:30;;;;;;;4.73;3.83;;;14.20;91.10;;;;;;4888383;29;20534;-85
2021/04/29 12:03:00;;;;;;;4.60;3.73;;;14.30;91.20;;;;;;4890846;29;20478;-86
2021/04/29 12:05:35;;;;;;;5.80;4.17;;;15.00;90.90;;;;;;4890836;29;20466;-86
2021/04/29 12:08:03;;;;;;;4.37;3.83;;;15.90;90.30;;;;;;4893209;29;20576;-85
2021/04/29 12:10:44;;;;;;;3.60;3.30;;;16.40;86.70;;;;;;4891790;29;20451;-85
2021/04/29 12:13:11;;;;;;;4.60;4.20;;;16.90;86.50;;;;;;4892469;29;20489;-85
2021/04/29 12:15:38;;;;;;;6.30;4.50;;;16.80;82.50;;;;;;4899516;29;20514;-81
2021/04/29 12:18:10;;;;;;;4.30;4.00;;;16.20;83.90;;;;;;4902983;29;20507;-81
2021/04/29 12:20:53;;;;;;;4.37;4.07;;;16.00;85.70;;;;;;4902914;29;20461;-81
2021/04/29 12:23:22;;;;;;;3.20;2.90;;;16.70;87.00;;;;;;4897417;29;20536;-85
2021/04/29 12:25:59;;;;;;;3.83;3.53;;;17.30;83.60;;;;;;4891133;29;20470;-83
2021/04/29 12:28:31;;;;;;;4.67;4.00;;;16.90;81.70;;;;;;4884629;29;20557;-84
2021/04/29 12:30:57;;;;;;;3.03;2.83;;;16.40;82.90;;;;;;4883266;29;20482;-83
2021/04/29 12:33:25;;;;;;;3.63;3.43;;;15.60;84.60;;;;;;4883360;29;20460;-84
2021/04/29 12:35:52;;;;;;;3.27;3.00;;;15.20;87.30;;;;;;4885988;29;20465;-82
2021/04/29 12:38:20;;;;;;;3.77;3.47;;;14.80;88.60;;;;;;4883751;29;20467;-86
2021/04/29 12:40:47;;;;;;;3.77;3.47;;;14.80;91.00;;;;;;4884131;29;20465;-83
2021/04/29 12:43:17;;;;;;;4.73;3.40;;;14.80;90.20;;;;;;4883300;29;20484;-83
2021/04/29 12:45:44;;;;;;;3.97;3.67;;;15.30;90.10;;;;;;4883489;29;20879;-83
2021/04/29 12:48:11;;;;;;;4.20;3.90;;;15.60;89.60;;;;;;4884535;29;20490;-83
2021/04/29 12:50:37;;;;;;;4.40;4.10;;;15.20;87.80;;;;;;4885459;29;20463;-85